createdAt,value
2018-08-28T00:02:00.974Z,97294.00
2018-08-28T00:04:31.554Z,97291.00
2018-08-28T00:07:05.764Z,97296.00
2018-08-28T00:09:36.619Z,97295.00
2018-08-28T00:12:07.616Z,97293.00
2018-08-28T00:14:41.167Z,97296.00
2018-08-28T00:17:15.254Z,97294.00
2018-08-28T00:19:45.742Z,97295.00
2018-08-28T00:22:16.179Z,97304.00
2018-08-28T00:24:46.686Z,97298.00
2018-08-28T00:27:17.232Z,97301.00
2018-08-28T00:29:47.767Z,97302.00
2018-08-28T00:32:21.866Z,97301.00
2018-08-28T00:34:52.289Z,97300.00
2018-08-28T00:37:22.778Z,97308.00
2018-08-28T00:39:53.191Z,97309.00
2018-08-28T00:42:23.466Z,97310.00
2018-08-28T00:44:53.883Z,97309.00
2018-08-28T00:47:30.196Z,97307.00
2018-08-28T00:50:01.247Z,97312.00
2018-08-28T00:52:32.117Z,97310.00
2018-08-28T00:55:02.338Z,97315.00
2018-08-28T00:57:32.812Z,97318.00
2018-08-28T01:00:03.375Z,97316.00
2018-08-28T01:02:33.787Z,97318.00
2018-08-28T01:05:04.592Z,97318.00
2018-08-28T01:07:34.993Z,97313.00
2018-08-28T01:10:05.826Z,97316.00
2018-08-28T01:12:41.103Z,97313.00
2018-08-28T01:15:11.395Z,97316.00
2018-08-28T01:17:41.861Z,97316.00
2018-08-28T01:20:12.220Z,97319.00
2018-08-28T01:22:42.715Z,97323.00
2018-08-28T01:25:13.086Z,97326.00
2018-08-28T01:27:43.413Z,97320.00
2018-08-28T01:30:13.931Z,97322.00
2018-08-28T01:32:46.287Z,97316.00
2018-08-28T01:35:16.587Z,97316.00
2018-08-28T01:37:46.817Z,97321.00
2018-08-28T01:40:17.057Z,97313.00
2018-08-28T01:42:47.418Z,97318.00
2018-08-28T01:45:17.838Z,97316.00
2018-08-28T01:47:49.274Z,97313.00
2018-08-28T01:50:19.683Z,97312.00
2018-08-28T01:52:50.200Z,97308.00
2018-08-28T01:55:20.533Z,97313.00
2018-08-28T01:57:50.799Z,97317.00
2018-08-28T02:00:21.282Z,97313.00
2018-08-28T02:02:51.903Z,97316.00
2018-08-28T02:05:22.180Z,97312.00
2018-08-28T02:07:59.730Z,97310.00
2018-08-28T02:10:30.361Z,97313.00
2018-08-28T02:13:00.428Z,97312.00
2018-08-28T02:15:32.030Z,97312.00
2018-08-28T02:18:02.482Z,97317.00
2018-08-28T02:20:33.146Z,97318.00
2018-08-28T02:23:03.731Z,97321.00
2018-08-28T02:25:34.178Z,97317.00
2018-08-28T02:28:04.603Z,97321.00
2018-08-28T02:30:35.109Z,97320.00
2018-08-28T02:33:07.315Z,97321.00
2018-08-28T02:35:37.827Z,97317.00
2018-08-28T02:38:08.030Z,97318.00
2018-08-28T02:40:38.424Z,97314.00
2018-08-28T02:43:13.371Z,97315.00
2018-08-28T02:45:45.407Z,97319.00
2018-08-28T02:48:16.152Z,97311.00
2018-08-28T02:50:46.558Z,97305.00
2018-08-28T02:53:16.980Z,97311.00
2018-08-28T02:55:47.231Z,97308.00
2018-08-28T02:58:17.499Z,97319.00
2018-08-28T03:00:47.481Z,97321.00
2018-08-28T03:03:17.570Z,97317.00
2018-08-28T03:06:13.202Z,97319.00
2018-08-28T03:08:43.529Z,97313.00
2018-08-28T03:11:14.539Z,97317.00
2018-08-28T03:13:44.474Z,97316.00
2018-08-28T03:16:18.653Z,97323.00
2018-08-28T03:18:48.578Z,97323.00
2018-08-28T03:21:18.561Z,97317.00
2018-08-28T03:23:48.645Z,97316.00
2018-08-28T03:26:20.190Z,97316.00
2018-08-28T03:28:53.471Z,97321.00
2018-08-28T03:31:24.402Z,97326.00
2018-08-28T03:33:54.537Z,97323.00
2018-08-28T03:36:25.255Z,97319.00
2018-08-28T03:38:55.694Z,97320.00
2018-08-28T03:41:27.083Z,97323.00
2018-08-28T03:43:58.028Z,97317.00
2018-08-28T03:46:28.701Z,97320.00
2018-08-28T03:48:59.056Z,97324.00
2018-08-28T03:51:29.355Z,97325.00
2018-08-28T03:54:00.946Z,97323.00
2018-08-28T03:56:31.373Z,97330.00
2018-08-28T03:59:01.675Z,97329.00
2018-08-28T04:01:39.811Z,97333.00
2018-08-28T04:04:27.970Z,97329.00
2018-08-28T04:07:07.868Z,97334.00
2018-08-28T04:09:38.531Z,97338.00
2018-08-28T04:12:22.715Z,97342.00
2018-08-28T04:14:53.227Z,97338.00
2018-08-28T04:17:24.228Z,97336.00
2018-08-28T04:19:54.964Z,97338.00
2018-08-28T04:22:25.448Z,97340.00
2018-08-28T04:24:55.728Z,97341.00
2018-08-28T04:27:26.307Z,97337.00
2018-08-28T04:29:56.842Z,97342.00
2018-08-28T04:32:27.890Z,97343.00
2018-08-28T04:34:58.834Z,97344.00
2018-08-28T04:37:29.688Z,97349.00
2018-08-28T04:40:01.246Z,97340.00
2018-08-28T04:42:32.474Z,97341.00
2018-08-28T04:45:02.979Z,97345.00
2018-08-28T04:47:33.934Z,97345.00
2018-08-28T04:50:04.595Z,97347.00
2018-08-28T04:52:35.938Z,97356.00
2018-08-28T04:55:06.787Z,97355.00
2018-08-28T04:57:37.597Z,97357.00
2018-08-28T05:00:09.032Z,97358.00
2018-08-28T05:02:40.590Z,97357.00
2018-08-28T05:05:11.523Z,97358.00
2018-08-28T05:07:42.065Z,97369.00
2018-08-28T05:10:13.008Z,97364.00
2018-08-28T05:12:44.015Z,97362.00
2018-08-28T05:15:15.008Z,97361.00
2018-08-28T05:17:46.052Z,97362.00
2018-08-28T05:20:17.043Z,97353.00
2018-08-28T05:22:47.662Z,97354.00
2018-08-28T05:25:18.130Z,97354.00
2018-08-28T05:27:49.609Z,97359.00
2018-08-28T05:30:20.543Z,97359.00
2018-08-28T05:32:56.471Z,97358.00
2018-08-28T05:35:27.202Z,97362.00
2018-08-28T05:37:58.139Z,97367.00
2018-08-28T05:40:28.747Z,97364.00
2018-08-28T05:42:59.558Z,97368.00
2018-08-28T05:45:30.280Z,97369.00
2018-08-28T05:48:01.517Z,97369.00
2018-08-28T05:50:32.602Z,97364.00
2018-08-28T05:53:02.970Z,97364.00
2018-08-28T05:55:33.358Z,97366.00
2018-08-28T05:58:03.867Z,97369.00
2018-08-28T06:00:34.324Z,97365.00
2018-08-28T06:03:05.030Z,97363.00
2018-08-28T06:05:35.485Z,97363.00
2018-08-28T06:08:06.221Z,97360.00
2018-08-28T06:10:36.482Z,97359.00
2018-08-28T06:13:06.869Z,97363.00
2018-08-28T06:15:37.353Z,97355.00
2018-08-28T06:18:07.735Z,97362.00
2018-08-28T06:20:38.078Z,97365.00
2018-08-28T06:23:08.816Z,97363.00
2018-08-28T06:25:39.694Z,97359.00
2018-08-28T06:28:10.779Z,97362.00
2018-08-28T06:30:41.707Z,97357.00
2018-08-28T06:33:12.459Z,97353.00
2018-08-28T06:35:43.266Z,97351.00
2018-08-28T06:38:14.289Z,97347.00
2018-08-28T06:40:45.068Z,97349.00
2018-08-28T06:43:16.122Z,97350.00
2018-08-28T06:45:47.963Z,97349.00
2018-08-28T06:48:18.526Z,97351.00
2018-08-28T06:50:49.479Z,97357.00
2018-08-28T06:53:20.943Z,97357.00
2018-08-28T06:55:51.889Z,97349.00
2018-08-28T06:58:22.900Z,97349.00
2018-08-28T07:00:54.078Z,97350.00
2018-08-28T07:03:25.097Z,97352.00
2018-08-28T07:05:55.867Z,97339.00
2018-08-28T07:08:26.878Z,97342.00
2018-08-28T07:10:57.939Z,97334.00
2018-08-28T07:13:28.559Z,97335.00
2018-08-28T07:15:59.491Z,97328.00
2018-08-28T07:18:30.506Z,97332.00
2018-08-28T07:21:01.269Z,97331.00
2018-08-28T07:23:32.151Z,97322.00
2018-08-28T07:26:03.084Z,97322.00
2018-08-28T07:28:33.708Z,97323.00
2018-08-28T07:31:04.396Z,97326.00
2018-08-28T07:33:35.278Z,97324.00
2018-08-28T07:36:06.084Z,97325.00
2018-08-28T07:38:36.733Z,97331.00
2018-08-28T07:41:07.801Z,97318.00
2018-08-28T07:43:38.715Z,97319.00
2018-08-28T07:46:09.464Z,97315.00
2018-08-28T07:48:40.295Z,97319.00
2018-08-28T07:51:11.171Z,97330.00
2018-08-28T07:53:41.906Z,97327.00
2018-08-28T07:56:12.791Z,97321.00
2018-08-28T07:58:47.689Z,97321.00
2018-08-28T08:01:18.537Z,97323.00
2018-08-28T08:03:49.824Z,97323.00
2018-08-28T08:06:20.488Z,97323.00
2018-08-28T08:08:51.402Z,97322.00
2018-08-28T08:11:22.258Z,97326.00
2018-08-28T08:13:53.338Z,97330.00
2018-08-28T08:16:24.284Z,97328.00
2018-08-28T08:18:54.923Z,97328.00
2018-08-28T08:21:26.023Z,97329.00
2018-08-28T08:23:57.010Z,97326.00
2018-08-28T08:26:28.003Z,97323.00
2018-08-28T08:28:58.943Z,97330.00
2018-08-28T08:31:29.605Z,97328.00
2018-08-28T08:34:00.612Z,97328.00
2018-08-28T08:36:31.650Z,97326.00
2018-08-28T08:39:02.936Z,97322.00
2018-08-28T08:41:33.621Z,97328.00
2018-08-28T08:44:04.380Z,97326.00
2018-08-28T08:46:35.449Z,97324.00
2018-08-28T08:49:06.145Z,97319.00
2018-08-28T08:51:37.099Z,97322.00
2018-08-28T08:54:08.087Z,97320.00
2018-08-28T08:56:38.820Z,97315.00
2018-08-28T08:59:09.826Z,97306.00
2018-08-28T09:01:40.687Z,97316.00
2018-08-28T09:04:11.165Z,97316.00
2018-08-28T09:06:41.854Z,97311.00
2018-08-28T09:09:12.831Z,97303.00
2018-08-28T09:11:43.774Z,97303.00
2018-08-28T09:14:15.159Z,97304.00
2018-08-28T09:16:45.903Z,97298.00
2018-08-28T09:19:17.203Z,97297.00
2018-08-28T09:21:48.736Z,97295.00
2018-08-28T09:24:19.535Z,97300.00
2018-08-28T09:26:50.673Z,97294.00
2018-08-28T09:29:21.629Z,97292.00
2018-08-28T09:31:52.639Z,97288.00
2018-08-28T09:34:23.279Z,97289.00
2018-08-28T09:36:54.224Z,97285.00
2018-08-28T09:39:24.871Z,97284.00
2018-08-28T09:41:55.713Z,97284.00
2018-08-28T09:44:26.299Z,97280.00
2018-08-28T09:46:57.316Z,97286.00
2018-08-28T09:49:27.984Z,97278.00
2018-08-28T09:51:58.955Z,97281.00
2018-08-28T09:54:30.228Z,97270.00
2018-08-28T09:57:00.910Z,97274.00
2018-08-28T09:59:31.796Z,97269.00
2018-08-28T10:02:02.825Z,97267.00
2018-08-28T10:04:33.547Z,97269.00
2018-08-28T10:07:04.467Z,97265.00
2018-08-28T10:09:35.446Z,97261.00
2018-08-28T10:12:06.484Z,97263.00
2018-08-28T10:14:37.119Z,97263.00
2018-08-28T10:17:08.018Z,97263.00
2018-08-28T10:19:38.562Z,97259.00
2018-08-28T10:22:09.408Z,97257.00
2018-08-28T10:24:39.995Z,97261.00
2018-08-28T10:27:10.554Z,97257.00
2018-08-28T10:29:42.202Z,97250.00
2018-08-28T10:32:19.424Z,97261.00
2018-08-28T10:34:50.546Z,97260.00
2018-08-28T10:37:21.236Z,97261.00
2018-08-28T10:39:52.089Z,97256.00
2018-08-28T10:42:22.996Z,97250.00
2018-08-28T10:44:54.600Z,97254.00
2018-08-28T10:47:25.135Z,97250.00
2018-08-28T10:49:55.973Z,97246.00
2018-08-28T10:52:27.244Z,97241.00
2018-08-28T10:54:57.638Z,97235.00
2018-08-28T10:57:28.541Z,97241.00
2018-08-28T10:59:59.217Z,97243.00
2018-08-28T11:02:29.714Z,97232.00
2018-08-28T11:05:00.310Z,97227.00
2018-08-28T11:07:31.255Z,97227.00
2018-08-28T11:10:01.795Z,97228.00
2018-08-28T11:12:32.700Z,97216.00
2018-08-28T11:15:03.755Z,97222.00
2018-08-28T11:17:34.234Z,97220.00
2018-08-28T11:20:04.773Z,97217.00
2018-08-28T11:22:35.267Z,97218.00
2018-08-28T11:25:07.200Z,97216.00
2018-08-28T11:27:38.196Z,97218.00
2018-08-28T11:30:09.258Z,97210.00
2018-08-28T11:32:40.334Z,97212.00
2018-08-28T11:35:10.955Z,97212.00
2018-08-28T11:37:41.902Z,97205.00
2018-08-28T11:40:13.220Z,97207.00
2018-08-28T11:42:44.354Z,97202.00
2018-08-28T11:45:15.530Z,97208.00
2018-08-28T11:47:46.971Z,97204.00
2018-08-28T11:50:17.602Z,97201.00
2018-08-28T11:52:48.645Z,97198.00
2018-08-28T11:55:23.550Z,97197.00
2018-08-28T11:57:54.911Z,97198.00
2018-08-28T12:00:26.050Z,97195.00
2018-08-28T12:02:57.379Z,97190.00
2018-08-28T12:05:28.091Z,97183.00
2018-08-28T12:07:58.576Z,97185.00
2018-08-28T12:10:29.439Z,97181.00
2018-08-28T12:13:00.046Z,97179.00
2018-08-28T12:15:30.675Z,97172.00
2018-08-28T12:18:02.602Z,97174.00
2018-08-28T12:20:33.580Z,97172.00
2018-08-28T12:23:04.141Z,97170.00
2018-08-28T12:25:34.694Z,97169.00
2018-08-28T12:28:05.463Z,97167.00
2018-08-28T12:30:36.113Z,97161.00
2018-08-28T12:33:06.481Z,97159.00
2018-08-28T12:35:36.649Z,97154.00
2018-08-28T12:38:07.146Z,97150.00
2018-08-28T12:40:37.601Z,97148.00
2018-08-28T12:43:08.566Z,97152.00
2018-08-28T12:45:39.178Z,97150.00
2018-08-28T12:48:09.537Z,97146.00
2018-08-28T12:50:40.190Z,97143.00
2018-08-28T12:53:10.809Z,97138.00
2018-08-28T12:55:47.193Z,97136.00
2018-08-28T12:58:17.802Z,97144.00
2018-08-28T13:00:47.817Z,97143.00
2018-08-28T13:03:18.237Z,97139.00
2018-08-28T13:05:54.669Z,97136.00
2018-08-28T13:08:25.269Z,97135.00
2018-08-28T13:10:55.759Z,97131.00
2018-08-28T13:13:26.386Z,97129.00
2018-08-28T13:15:57.224Z,97130.00
2018-08-28T13:18:27.954Z,97127.00
2018-08-28T13:20:58.755Z,97125.00
2018-08-28T13:23:29.448Z,97127.00
2018-08-28T13:26:00.075Z,97119.00
2018-08-28T13:28:30.818Z,97117.00
2018-08-28T13:31:01.759Z,97109.00
2018-08-28T13:33:32.459Z,97112.00
2018-08-28T13:36:03.447Z,97109.00
2018-08-28T13:38:34.106Z,97102.00
2018-08-28T13:41:04.473Z,97101.00
2018-08-28T13:43:35.843Z,97100.00
2018-08-28T13:46:06.570Z,97101.00
2018-08-28T13:48:37.619Z,97095.00
2018-08-28T13:51:15.509Z,97098.00
2018-08-28T13:53:46.955Z,97101.00
2018-08-28T13:56:17.527Z,97096.00
2018-08-28T13:58:47.561Z,97092.00
2018-08-28T14:01:18.900Z,97087.00
2018-08-28T14:03:49.161Z,97091.00
2018-08-28T14:06:20.106Z,97090.00
2018-08-28T14:08:51.581Z,97090.00
2018-08-28T14:11:22.121Z,97084.00
2018-08-28T14:13:52.209Z,97080.00
2018-08-28T14:16:22.621Z,97086.00
2018-08-28T14:18:53.109Z,97082.00
2018-08-28T14:21:23.646Z,97077.00
2018-08-28T14:24:02.258Z,97078.00
2018-08-28T14:26:33.037Z,97075.00
2018-08-28T14:29:03.386Z,97080.00
2018-08-28T14:31:33.636Z,97072.00
2018-08-28T14:34:04.315Z,97071.00
2018-08-28T14:36:34.768Z,97070.00
2018-08-28T14:39:06.361Z,97069.00
2018-08-28T14:41:36.461Z,97068.00
2018-08-28T14:44:08.830Z,97068.00
2018-08-28T14:46:39.277Z,97066.00
2018-08-28T14:49:09.878Z,97060.00
2018-08-28T14:51:40.285Z,97059.00
2018-08-28T14:54:10.857Z,97058.00
2018-08-28T14:56:41.897Z,97059.00
2018-08-28T14:59:13.509Z,97058.00
2018-08-28T15:01:44.243Z,97052.00
2018-08-28T15:04:15.299Z,97056.00
2018-08-28T15:06:46.363Z,97057.00
2018-08-28T15:09:16.933Z,97049.00
2018-08-28T15:11:49.425Z,97054.00
2018-08-28T15:14:21.623Z,97053.00
2018-08-28T15:16:53.513Z,97052.00
2018-08-28T15:19:23.974Z,97048.00
2018-08-28T15:21:54.486Z,97055.00
2018-08-28T15:24:25.372Z,97046.00
2018-08-28T15:26:55.694Z,97053.00
2018-08-28T15:29:28.493Z,97046.00
2018-08-28T15:31:59.066Z,97039.00
2018-08-28T15:34:29.594Z,97041.00
2018-08-28T15:37:00.050Z,97044.00
2018-08-28T15:39:30.701Z,97038.00
2018-08-28T15:42:01.095Z,97036.00
2018-08-28T15:44:31.665Z,97038.00
2018-08-28T15:47:03.117Z,97038.00
2018-08-28T15:49:33.626Z,97037.00
2018-08-28T15:52:15.573Z,97035.00
2018-08-28T15:54:46.513Z,97034.00
2018-08-28T15:57:17.174Z,97030.00
2018-08-28T15:59:47.701Z,97034.00
2018-08-28T16:02:19.218Z,97030.00
2018-08-28T16:04:49.920Z,97023.00
2018-08-28T16:07:20.593Z,97026.00
2018-08-28T16:09:51.934Z,97022.00
2018-08-28T16:12:29.706Z,97030.00
2018-08-28T16:15:06.270Z,97026.00
2018-08-28T16:17:37.835Z,97024.00
2018-08-28T16:20:08.644Z,97024.00
2018-08-28T16:22:42.950Z,97019.00
2018-08-28T16:25:13.800Z,97014.00
2018-08-28T16:27:44.369Z,97011.00
2018-08-28T16:30:14.852Z,97005.00
2018-08-28T16:32:45.769Z,97012.00
2018-08-28T16:35:16.355Z,97006.00
2018-08-28T16:37:47.085Z,97006.00
2018-08-28T16:40:17.782Z,97008.00
2018-08-28T16:42:48.469Z,97004.00
2018-08-28T16:45:19.524Z,97002.00
2018-08-28T16:51:02.859Z,97003.00
2018-08-28T16:53:33.815Z,96993.00
2018-08-28T16:56:06.031Z,96993.00
2018-08-28T16:58:36.870Z,96995.00
2018-08-28T17:01:08.003Z,96995.00
2018-08-28T17:03:38.936Z,96987.00
2018-08-28T17:06:19.539Z,96993.00
2018-08-28T17:08:50.531Z,96985.00
2018-08-28T17:11:21.677Z,96995.00
2018-08-28T17:13:52.641Z,96990.00
2018-08-28T17:16:23.926Z,96991.00
2018-08-28T17:18:54.657Z,96994.00
2018-08-28T17:21:25.513Z,96989.00
2018-08-28T17:23:56.279Z,96995.00
2018-08-28T17:26:27.507Z,96991.00
2018-08-28T17:28:58.228Z,96996.00
2018-08-28T17:31:29.005Z,97002.00
2018-08-28T17:33:59.979Z,97002.00
2018-08-28T17:36:31.119Z,97000.00
2018-08-28T17:39:01.811Z,97003.00
2018-08-28T17:41:32.755Z,97010.00
2018-08-28T17:44:03.803Z,97010.00
2018-08-28T17:46:35.122Z,97011.00
2018-08-28T17:49:06.273Z,97011.00
2018-08-28T17:51:36.789Z,97008.00
2018-08-28T17:54:08.143Z,97011.00
2018-08-28T17:56:39.366Z,97010.00
2018-08-28T17:59:09.794Z,97016.00
2018-08-28T18:01:40.232Z,97014.00
2018-08-28T18:04:10.729Z,97015.00
2018-08-28T18:06:41.091Z,97013.00
2018-08-28T18:09:11.496Z,97018.00
2018-08-28T18:11:41.983Z,97024.00
2018-08-28T18:14:12.411Z,97020.00
2018-08-28T18:16:42.743Z,97026.00
2018-08-28T18:19:13.110Z,97024.00
2018-08-28T18:21:43.748Z,97030.00
2018-08-28T18:24:14.172Z,97026.00
2018-08-28T18:26:47.741Z,97025.00
2018-08-28T18:29:18.235Z,97028.00
2018-08-28T18:31:48.634Z,97031.00
2018-08-28T18:34:19.002Z,97033.00
2018-08-28T18:36:49.410Z,97034.00
2018-08-28T18:39:19.783Z,97034.00
2018-08-28T18:41:50.324Z,97035.00
2018-08-28T18:44:20.616Z,97033.00
2018-08-28T18:46:51.285Z,97033.00
2018-08-28T18:49:21.570Z,97035.00
2018-08-28T18:51:52.196Z,97036.00
2018-08-28T18:54:22.676Z,97033.00
2018-08-28T18:56:53.350Z,97032.00
2018-08-28T18:59:23.887Z,97028.00
2018-08-28T19:01:54.433Z,97032.00
2018-08-28T19:04:24.857Z,97030.00
2018-08-28T19:06:55.560Z,97034.00
2018-08-28T19:09:26.100Z,97035.00
2018-08-28T19:11:56.826Z,97029.00
2018-08-28T19:14:28.509Z,97028.00
2018-08-28T19:16:58.985Z,97024.00
2018-08-28T19:19:42.049Z,97033.00
2018-08-28T19:22:12.544Z,97029.00
2018-08-28T19:24:43.128Z,97026.00
2018-08-28T19:27:14.143Z,97029.00
2018-08-28T19:29:44.905Z,97034.00
2018-08-28T19:32:15.678Z,97032.00
2018-08-28T19:34:46.044Z,97033.00
2018-08-28T19:37:16.709Z,97038.00
2018-08-28T19:39:47.234Z,97041.00
2018-08-28T19:42:28.936Z,97039.00
2018-08-28T19:45:00.055Z,97040.00
2018-08-28T19:47:30.895Z,97038.00
2018-08-28T19:50:03.067Z,97036.00
2018-08-28T19:52:34.792Z,97034.00
2018-08-28T19:55:05.910Z,97035.00
2018-08-28T19:57:36.778Z,97032.00
2018-08-28T20:00:10.111Z,97042.00
2018-08-28T20:02:41.455Z,97036.00
2018-08-28T20:05:14.497Z,97035.00
2018-08-28T20:07:45.913Z,97035.00
2018-08-28T20:10:18.058Z,97034.00
2018-08-28T20:12:49.480Z,97038.00
2018-08-28T20:15:21.511Z,97037.00
2018-08-28T20:17:52.542Z,97034.00
2018-08-28T20:20:23.121Z,97031.00
2018-08-28T20:22:55.081Z,97036.00
2018-08-28T20:25:27.009Z,97034.00
2018-08-28T20:27:57.925Z,97033.00
2018-08-28T20:30:31.962Z,97028.00
2018-08-28T20:33:05.606Z,97026.00
2018-08-28T20:35:39.642Z,97019.00
2018-08-28T20:38:10.598Z,97021.00
2018-08-28T20:40:42.099Z,97021.00
2018-08-28T20:43:15.313Z,97015.00
2018-08-28T20:45:47.235Z,97016.00
2018-08-28T20:48:19.152Z,97015.00
2018-08-28T20:51:06.103Z,97012.00
2018-08-28T20:53:37.791Z,97013.00
2018-08-28T20:56:09.773Z,97010.00
2018-08-28T20:58:42.843Z,97012.00
2018-08-28T21:01:14.744Z,97012.00
2018-08-28T21:03:47.467Z,97005.00
2018-08-28T21:06:24.175Z,97001.00
2018-08-28T21:08:56.126Z,97000.00
2018-08-28T21:11:28.189Z,96997.00
2018-08-28T21:14:00.698Z,96999.00
2018-08-28T21:16:31.277Z,96993.00
2018-08-28T21:19:01.711Z,96985.00
2018-08-28T21:21:39.189Z,96984.00
2018-08-28T21:24:09.657Z,96988.00
2018-08-28T21:26:42.816Z,96983.00
2018-08-28T21:29:14.195Z,96984.00
2018-08-28T21:31:44.779Z,96982.00
2018-08-28T21:34:15.438Z,96978.00
2018-08-28T21:36:47.714Z,96977.00
2018-08-28T21:39:19.016Z,96975.00
2018-08-28T21:41:49.588Z,96979.00
2018-08-28T21:44:20.194Z,96974.00
2018-08-28T21:46:51.258Z,96973.00
2018-08-28T21:49:22.577Z,96974.00
2018-08-28T21:51:53.239Z,96969.00
2018-08-28T21:54:24.866Z,96969.00
2018-08-28T21:56:57.602Z,96964.00
2018-08-28T21:59:28.413Z,96961.00
2018-08-28T22:01:59.611Z,96962.00
2018-08-28T22:04:30.564Z,96961.00
2018-08-28T22:07:06.762Z,96963.00
2018-08-28T22:09:39.884Z,96963.00
2018-08-28T22:12:10.275Z,96959.00
2018-08-28T22:14:41.434Z,96960.00
2018-08-28T22:17:13.584Z,96958.00
2018-08-28T22:19:43.611Z,96959.00
2018-08-28T22:22:13.956Z,96959.00
2018-08-28T22:24:44.134Z,96955.00
2018-08-28T22:27:14.477Z,96954.00
2018-08-28T22:29:46.109Z,96956.00
2018-08-28T22:32:18.738Z,96957.00
2018-08-28T22:34:50.587Z,96958.00
2018-08-28T22:37:21.275Z,96951.00
2018-08-28T22:39:52.363Z,96951.00
2018-08-28T22:42:29.832Z,96951.00
2018-08-28T22:45:01.624Z,96952.00
2018-08-28T22:47:32.440Z,96953.00
2018-08-28T22:50:05.215Z,96946.00
2018-08-28T22:52:36.064Z,96942.00
2018-08-28T22:55:06.995Z,96936.00
2018-08-28T22:57:38.030Z,96942.00
2018-08-28T23:00:13.023Z,96939.00
2018-08-28T23:02:43.965Z,96942.00
2018-08-28T23:05:15.088Z,96938.00
2018-08-28T23:07:45.926Z,96941.00
2018-08-28T23:10:16.914Z,96941.00
2018-08-28T23:12:51.426Z,96935.00
2018-08-28T23:15:28.728Z,96943.00
2018-08-28T23:17:59.271Z,96941.00
2018-08-28T23:20:30.184Z,96939.00
2018-08-28T23:23:02.991Z,96944.00
2018-08-28T23:25:33.591Z,96948.00
2018-08-28T23:28:03.942Z,96950.00
2018-08-28T23:30:34.415Z,96950.00
2018-08-28T23:33:05.412Z,96944.00
2018-08-28T23:35:35.981Z,96937.00
2018-08-28T23:38:06.739Z,96937.00
2018-08-28T23:40:36.978Z,96932.00
2018-08-28T23:43:08.639Z,96934.00
2018-08-28T23:45:39.245Z,96933.00
2018-08-28T23:48:10.285Z,96938.00
2018-08-28T23:50:40.726Z,96943.00
2018-08-28T23:53:11.424Z,96951.00
2018-08-28T23:55:42.134Z,96957.00
2018-08-28T23:58:13.200Z,96965.00
